Time;durP1;ratioP1;P1;durP2;ratioP2;P2;SDS_P1;SDS_P2;PMS_P1;PMS_P2;Temp;Humidity;BMP_temperature;BMP_pressure;BME280_temperature;BME280_humidity;BME280_pressure;Samples;Min_cycle;Max_cycle;Signal;HPM_P1;HPM_P2
2022/09/23 00:01:42;;;;;;;10.98;3.63;;;15.70;58.50;;;;;;7423807;19;20007;-92
2022/09/23 00:04:11;;;;;;;6.32;3.53;;;15.70;58.50;;;;;;7411725;19;20062;-92
2022/09/23 00:06:42;;;;;;;11.00;4.03;;;15.70;58.60;;;;;;7408661;19;20514;-92
2022/09/23 00:09:11;;;;;;;5.82;3.70;;;15.60;58.60;;;;;;7406893;19;20014;-92
2022/09/23 00:11:40;;;;;;;10.95;4.38;;;15.60;58.70;;;;;;7408967;19;20080;-91
2022/09/23 00:14:09;;;;;;;8.45;4.22;;;15.50;58.80;;;;;;7410189;19;20006;-88
2022/09/23 00:16:38;;;;;;;8.90;3.70;;;15.50;59.60;;;;;;7418179;19;20023;-81
2022/09/23 00:19:07;;;;;;;10.43;3.92;;;15.50;59.20;;;;;;7404081;19;20011;-93
2022/09/23 00:21:36;;;;;;;7.28;3.83;;;15.40;59.20;;;;;;7407912;19;20010;-92
2022/09/23 00:24:07;;;;;;;13.65;4.00;;;15.40;59.20;;;;;;7400479;19;20010;-92
2022/09/23 00:26:36;;;;;;;8.65;3.90;;;15.50;59.30;;;;;;7400175;19;20015;-90
2022/09/23 00:29:05;;;;;;;6.68;4.00;;;15.50;59.20;;;;;;7401741;19;20010;-89
2022/09/23 00:31:34;;;;;;;8.82;4.07;;;15.50;59.30;;;;;;7424267;19;20030;-92
2022/09/23 00:34:03;;;;;;;14.10;3.80;;;15.40;59.30;;;;;;7401639;19;20010;-92
2022/09/23 00:36:33;;;;;;;10.18;3.90;;;15.40;59.40;;;;;;7402810;19;20023;-92
2022/09/23 00:39:02;;;;;;;10.20;4.10;;;15.40;59.30;;;;;;7393930;19;20007;-91
2022/09/23 00:41:34;;;;;;;10.63;4.00;;;15.50;59.30;;;;;;7397257;19;20030;-91
2022/09/23 00:44:02;;;;;;;;;;;15.50;59.20;;;;;;7393028;19;20015;-91
2022/09/23 00:46:36;;;;;;;7.60;3.67;;;15.50;59.30;;;;;;7417014;19;19923;-91
2022/09/23 00:49:10;;;;;;;12.95;4.15;;;15.40;59.20;;;;;;7397031;19;20022;-92
2022/09/23 00:51:42;;;;;;;6.55;3.80;;;15.40;59.20;;;;;;7394608;19;20022;-91
2022/09/23 00:54:12;;;;;;;9.38;3.70;;;15.40;59.90;;;;;;7392611;19;20026;-91
2022/09/23 00:56:43;;;;;;;7.18;3.90;;;15.40;59.30;;;;;;7394274;19;20050;-91
2022/09/23 00:59:12;;;;;;;9.68;4.35;;;15.40;59.40;;;;;;7402768;19;20031;-90
2022/09/23 01:01:41;;;;;;;8.23;3.88;;;15.40;59.30;;;;;;7425101;19;20018;-92
2022/09/23 01:04:11;;;;;;;8.68;4.00;;;15.40;59.30;;;;;;7389564;19;20017;-91
2022/09/23 01:06:40;;;;;;;7.68;3.85;;;15.40;59.20;;;;;;7408684;19;20038;-93
2022/09/23 01:09:09;;;;;;;12.70;4.05;;;15.40;59.20;;;;;;7405839;19;20007;-91
2022/09/23 01:11:51;;;;;;;9.88;4.18;;;15.30;59.20;;;;;;7407301;19;20002;-91
2022/09/23 01:14:39;;;;;;;8.75;4.05;;;15.30;59.40;;;;;;7406876;19;20014;-89
2022/09/23 01:17:16;;;;;;;12.95;4.38;;;15.20;60.10;;;;;;7411409;19;20015;-88
2022/09/23 01:20:05;;;;;;;11.25;4.25;;;15.10;59.50;;;;;;7430711;19;20011;-90
2022/09/23 01:22:42;;;;;;;9.35;3.95;;;15.10;59.70;;;;;;7409096;19;20007;-91
2022/09/23 01:25:39;;;;;;;9.73;4.47;;;15.00;59.80;;;;;;7408497;19;20006;-91
2022/09/23 01:28:34;;;;;;;10.55;4.70;;;15.00;59.90;;;;;;7408658;19;20051;-90
2022/09/23 01:31:08;;;;;;;8.30;4.18;;;15.00;60.00;;;;;;7405270;19;20022;-91
2022/09/23 01:33:46;;;;;;;12.73;4.07;;;15.00;60.10;;;;;;7406724;19;20031;-91
2022/09/23 01:36:24;;;;;;;5.63;3.85;;;15.00;60.10;;;;;;7402848;19;20083;-91
2022/09/23 01:39:00;;;;;;;7.75;4.22;;;15.00;59.90;;;;;;7400515;19;20014;-91
2022/09/23 01:41:50;;;;;;;12.50;3.63;;;15.00;60.10;;;;;;7402246;19;20022;-91
2022/09/23 01:44:24;;;;;;;7.15;3.70;;;15.10;60.20;;;;;;7387636;19;20015;-90
2022/09/23 01:46:58;;;;;;;6.35;3.42;;;15.10;60.10;;;;;;7390369;19;20054;-84
2022/09/23 01:49:33;;;;;;;13.23;4.07;;;15.10;59.90;;;;;;7418333;19;20028;-90
2022/09/23 01:52:09;;;;;;;12.95;3.90;;;15.10;59.80;;;;;;7391937;19;20019;-90
2022/09/23 01:54:41;;;;;;;6.63;3.85;;;15.10;59.90;;;;;;7389634;19;20035;-88
2022/09/23 01:57:14;;;;;;;9.93;3.45;;;15.10;60.00;;;;;;7394574;19;20019;-90
2022/09/23 01:59:46;;;;;;;9.02;4.10;;;15.10;60.20;;;;;;7396500;19;20018;-90
2022/09/23 02:02:22;;;;;;;8.23;3.47;;;15.10;60.00;;;;;;7380515;19;20059;-90
2022/09/23 02:04:57;;;;;;;6.70;3.75;;;15.10;60.00;;;;;;7381513;19;20106;-89
2022/09/23 02:07:29;;;;;;;6.15;3.67;;;15.10;60.00;;;;;;7417107;19;20014;-89
2022/09/23 02:10:04;;;;;;;8.27;4.05;;;15.00;60.10;;;;;;7402774;19;20122;-89
2022/09/23 02:12:37;;;;;;;10.30;4.05;;;15.00;60.10;;;;;;7396782;19;20451;-90
2022/09/23 02:15:10;;;;;;;11.52;4.00;;;15.00;60.00;;;;;;7389808;19;20007;-90
2022/09/23 02:17:47;;;;;;;7.65;4.18;;;15.00;60.20;;;;;;7387596;19;20110;-90
2022/09/23 02:20:19;;;;;;;6.25;3.88;;;15.00;60.30;;;;;;7388595;19;20027;-90
2022/09/23 02:22:54;;;;;;;7.35;3.95;;;15.00;60.40;;;;;;7396367;19;20172;-88
2022/09/23 02:25:33;;;;;;;8.15;3.78;;;15.00;60.40;;;;;;7413657;19;20410;-88
2022/09/23 02:28:10;;;;;;;9.68;4.22;;;15.00;60.40;;;;;;7394631;19;20039;-89
2022/09/23 02:30:47;;;;;;;7.90;3.80;;;15.00;60.30;;;;;;7393718;19;20532;-89
2022/09/23 02:33:23;;;;;;;6.82;3.58;;;15.00;60.10;;;;;;7386730;19;20124;-89
2022/09/23 02:35:57;;;;;;;7.70;3.97;;;15.00;60.20;;;;;;7385869;19;20018;-90
2022/09/23 02:38:35;;;;;;;14.40;3.63;;;14.90;60.20;;;;;;7384309;19;20014;-90
2022/09/23 02:41:09;;;;;;;7.50;3.90;;;14.90;60.50;;;;;;7383787;19;20110;-90
2022/09/23 02:43:44;;;;;;;6.93;3.92;;;14.90;60.60;;;;;;7414149;19;20018;-88
2022/09/23 02:46:13;;;;;;;5.97;3.65;;;14.90;60.30;;;;;;7384767;19;20018;-89
2022/09/23 02:48:48;;;;;;;8.70;4.20;;;14.90;60.50;;;;;;7385344;19;20470;-88
2022/09/23 02:51:17;;;;;;;9.32;4.30;;;14.80;60.60;;;;;;7386898;19;20022;-89
2022/09/23 02:53:47;;;;;;;13.98;4.20;;;14.80;60.70;;;;;;7388590;19;20014;-89
2022/09/23 02:56:19;;;;;;;6.75;3.63;;;14.90;60.80;;;;;;7386414;19;20010;-89
2022/09/23 02:58:48;;;;;;;5.10;3.50;;;14.90;60.90;;;;;;7392251;19;20014;-88
2022/09/23 03:01:30;;;;;;;10.98;3.97;;;14.90;60.90;;;;;;7407964;19;20098;-89
2022/09/23 03:04:07;;;;;;;;;;;15.00;60.80;;;;;;7384530;19;20321;-89
2022/09/23 03:06:45;;;;;;;7.40;3.30;;;15.00;60.60;;;;;;7383397;19;19936;-89
2022/09/23 03:09:21;;;;;;;6.72;3.72;;;15.00;60.50;;;;;;7389098;19;20017;-90
2022/09/23 03:11:58;;;;;;;7.57;3.42;;;15.00;60.70;;;;;;7393713;19;20026;-89
2022/09/23 03:14:31;;;;;;;7.13;3.80;;;15.00;60.50;;;;;;7392850;19;20018;-89
2022/09/23 03:17:05;;;;;;;9.80;3.75;;;15.00;60.40;;;;;;7389383;19;20665;-89
2022/09/23 03:19:42;;;;;;;7.45;3.60;;;15.00;60.50;;;;;;7413531;19;20029;-90
2022/09/23 03:22:14;;;;;;;7.35;3.58;;;15.00;60.70;;;;;;7392462;19;20421;-89
2022/09/23 03:24:46;;;;;;;7.55;3.70;;;15.00;60.80;;;;;;7392238;19;20110;-91
2022/09/23 03:27:17;;;;;;;6.03;3.67;;;15.00;60.80;;;;;;7396041;19;20029;-90
2022/09/23 03:29:49;;;;;;;7.63;3.55;;;15.00;60.80;;;;;;7395262;19;20018;-90
2022/09/23 03:32:20;;;;;;;7.97;3.88;;;14.90;60.80;;;;;;7394790;19;20018;-89
2022/09/23 03:34:56;;;;;;;8.38;3.72;;;14.90;60.80;;;;;;7393819;19;20093;-89
2022/09/23 03:37:31;;;;;;;7.53;3.67;;;14.90;60.90;;;;;;7418268;19;20018;-89
2022/09/23 03:40:05;;;;;;;10.80;4.72;;;14.90;60.90;;;;;;7390482;19;20022;-89
2022/09/23 03:42:35;;;;;;;6.95;3.95;;;14.90;60.90;;;;;;7391912;19;20018;-88
2022/09/23 03:45:08;;;;;;;8.85;4.10;;;14.90;60.90;;;;;;7391675;19;20014;-90
2022/09/23 03:47:38;;;;;;;13.50;3.92;;;14.90;60.90;;;;;;7395493;19;20093;-90
2022/09/23 03:50:12;;;;;;;8.23;3.70;;;14.90;61.00;;;;;;7399641;19;20044;-89
2022/09/23 03:52:41;;;;;;;10.05;3.60;;;14.90;60.90;;;;;;7422860;19;20019;-90
2022/09/23 03:55:11;;;;;;;8.75;3.95;;;15.00;61.10;;;;;;7400446;19;20014;-90
2022/09/23 03:57:40;;;;;;;8.13;3.88;;;15.00;61.00;;;;;;7400084;19;20027;-89
2022/09/23 04:00:10;;;;;;;9.95;4.00;;;15.00;60.70;;;;;;7394310;19;20066;-91
2022/09/23 04:02:38;;;;;;;7.65;4.07;;;15.00;60.90;;;;;;7394074;19;20018;-92
2022/09/23 04:05:13;;;;;;;4.68;3.38;;;15.00;60.80;;;;;;7400062;19;20021;-90
2022/09/23 04:07:42;;;;;;;6.55;3.83;;;14.90;60.80;;;;;;7426474;19;20031;-90
2022/09/23 04:10:12;;;;;;;9.27;3.30;;;14.80;60.90;;;;;;7406424;19;20021;-91
2022/09/23 04:12:41;;;;;;;9.15;3.85;;;14.80;61.10;;;;;;7405001;19;20014;-91
2022/09/23 04:15:10;;;;;;;7.60;3.58;;;14.80;61.20;;;;;;7409485;19;20023;-91
2022/09/23 04:17:39;;;;;;;6.15;3.90;;;14.70;61.30;;;;;;7410823;19;20024;-90
2022/09/23 04:20:11;;;;;;;7.93;3.47;;;14.70;61.50;;;;;;7411543;19;20010;-90
2022/09/23 04:22:40;;;;;;;6.78;3.90;;;14.70;61.70;;;;;;7426529;19;20007;-91
2022/09/23 04:25:10;;;;;;;8.82;3.55;;;14.70;61.80;;;;;;7411799;19;20007;-90
2022/09/23 04:27:39;;;;;;;9.30;4.00;;;14.70;61.80;;;;;;7412420;19;20021;-90
2022/09/23 04:30:09;;;;;;;14.10;3.97;;;14.80;61.90;;;;;;7407367;19;20007;-90
2022/09/23 04:32:37;;;;;;;9.82;3.83;;;14.80;61.90;;;;;;7407836;19;20014;-89
2022/09/23 04:35:09;;;;;;;8.50;3.40;;;14.80;61.80;;;;;;7410806;19;20012;-88
2022/09/23 04:37:38;;;;;;;10.63;3.72;;;14.90;61.90;;;;;;7435289;19;20010;-92
2022/09/23 04:42:43;;;;;;;7.72;3.33;;;14.90;62.60;;;;;;7405719;19;19999;-91
2022/09/23 04:45:12;;;;;;;6.47;3.78;;;14.90;61.70;;;;;;7408457;19;20019;-92
2022/09/23 04:47:41;;;;;;;10.20;3.53;;;15.00;61.80;;;;;;7410847;19;20017;-93
2022/09/23 04:50:12;;;;;;;8.02;3.90;;;15.00;61.70;;;;;;7377812;19;20021;-81
2022/09/23 04:52:41;;;;;;;8.88;4.10;;;15.00;61.60;;;;;;7432177;19;20014;-90
2022/09/23 04:55:11;;;;;;;10.25;4.43;;;15.10;61.60;;;;;;7410536;19;20011;-90
2022/09/23 04:57:40;;;;;;;11.00;4.32;;;15.00;61.40;;;;;;7408291;19;20007;-90
2022/09/23 05:00:11;;;;;;;13.05;4.20;;;15.00;61.30;;;;;;7409893;19;20021;-90
2022/09/23 05:02:44;;;;;;;11.67;4.37;;;15.00;61.30;;;;;;7411140;19;20030;-89
2022/09/23 05:05:20;;;;;;;12.02;4.10;;;15.00;61.40;;;;;;7410557;19;20006;-90
2022/09/23 05:07:49;;;;;;;12.43;4.47;;;14.90;61.30;;;;;;7403202;19;20006;-85
2022/09/23 05:10:19;;;;;;;13.82;4.28;;;14.90;61.30;;;;;;7408871;19;20017;-90
2022/09/23 05:12:47;;;;;;;10.32;4.30;;;14.90;61.50;;;;;;7390097;19;20014;-90
2022/09/23 05:15:17;;;;;;;8.02;4.03;;;14.90;61.60;;;;;;7389614;19;20027;-90
2022/09/23 05:17:45;;;;;;;10.55;4.70;;;14.90;61.50;;;;;;7394155;19;20412;-90
2022/09/23 05:20:18;;;;;;;10.82;4.20;;;14.90;61.50;;;;;;7391205;19;20027;-89
2022/09/23 05:22:46;;;;;;;15.90;4.50;;;14.90;61.50;;;;;;7406761;19;20033;-82
2022/09/23 05:25:15;;;;;;;11.95;4.47;;;14.90;61.60;;;;;;7406632;19;20014;-89
2022/09/23 05:27:44;;;;;;;11.20;4.20;;;14.90;61.80;;;;;;7379613;19;20513;-88
2022/09/23 05:30:13;;;;;;;13.20;4.50;;;14.90;61.80;;;;;;7384493;19;20043;-90
2022/09/23 05:32:42;;;;;;;9.68;4.05;;;14.90;61.60;;;;;;7391392;19;20042;-89
2022/09/23 05:35:11;;;;;;;7.20;4.25;;;14.90;61.60;;;;;;7381736;19;20561;-89
2022/09/23 05:37:42;;;;;;;15.63;4.50;;;14.90;61.60;;;;;;7403100;19;20106;-88
2022/09/23 05:40:11;;;;;;;18.25;4.30;;;14.90;61.80;;;;;;7380464;19;20025;-89
2022/09/23 05:42:40;;;;;;;10.82;4.43;;;14.90;61.70;;;;;;7383836;19;20415;-89
2022/09/23 05:45:10;;;;;;;8.88;4.10;;;14.80;61.70;;;;;;7391164;19;20011;-89
2022/09/23 05:47:38;;;;;;;19.40;5.18;;;14.80;61.80;;;;;;7404357;19;20031;-90
2022/09/23 05:50:08;;;;;;;12.82;4.72;;;14.80;62.00;;;;;;7413588;19;20038;-87
2022/09/23 05:52:37;;;;;;;10.63;4.55;;;14.80;62.20;;;;;;7439304;19;20010;-90
2022/09/23 05:55:10;;;;;;;8.68;4.82;;;14.80;61.90;;;;;;7413162;19;20016;-89
2022/09/23 05:57:39;;;;;;;13.38;4.32;;;14.70;62.10;;;;;;7402527;19;20093;-88
2022/09/23 06:00:09;;;;;;;17.35;4.47;;;14.70;62.10;;;;;;7388249;19;20022;-88
2022/09/23 06:02:38;;;;;;;12.43;4.38;;;14.70;62.40;;;;;;7391841;19;20035;-89
2022/09/23 06:05:07;;;;;;;16.27;4.63;;;14.70;62.40;;;;;;7397713;19;20153;-89
2022/09/23 06:07:36;;;;;;;13.95;4.50;;;14.80;62.50;;;;;;7419872;19;20051;-89
2022/09/23 06:10:08;;;;;;;26.17;4.80;;;14.80;62.20;;;;;;7392553;19;20064;-89
2022/09/23 06:12:37;;;;;;;10.02;4.55;;;14.80;62.20;;;;;;7393902;19;20313;-89
2022/09/23 06:15:07;;;;;;;17.23;4.70;;;14.80;62.20;;;;;;7406909;19;20038;-90
2022/09/23 06:17:35;;;;;;;10.50;4.25;;;14.90;62.40;;;;;;7408909;19;20023;-90
2022/09/23 06:20:04;;;;;;;13.70;4.68;;;14.90;62.40;;;;;;7369673;19;20014;-89
2022/09/23 06:22:33;;;;;;;12.63;4.28;;;15.00;62.40;;;;;;7426657;19;20014;-91
2022/09/23 06:25:02;;;;;;;19.95;5.20;;;15.00;62.30;;;;;;7409889;19;20007;-91
2022/09/23 06:27:33;;;;;;;19.83;5.43;;;15.10;62.40;;;;;;7406167;19;20002;-90
2022/09/23 06:30:02;;;;;;;13.60;4.93;;;15.20;62.50;;;;;;7406803;19;20014;-89
2022/09/23 06:32:31;;;;;;;14.25;4.53;;;15.20;62.20;;;;;;7402986;19;20018;-91
2022/09/23 06:34:59;;;;;;;25.13;4.88;;;15.20;62.00;;;;;;7407405;19;20038;-91
2022/09/23 06:37:29;;;;;;;14.52;4.70;;;15.20;62.00;;;;;;7426171;19;20014;-91
2022/09/23 06:39:58;;;;;;;17.77;4.78;;;15.20;62.00;;;;;;7404123;19;20043;-91
2022/09/23 06:42:26;;;;;;;22.30;5.10;;;15.30;61.90;;;;;;7396500;19;20022;-88
2022/09/23 06:44:58;;;;;;;14.57;4.65;;;15.30;61.60;;;;;;7348607;19;20030;-83
2022/09/23 06:47:27;;;;;;;12.30;5.07;;;15.40;61.70;;;;;;7380494;19;20033;-87
2022/09/23 06:49:58;;;;;;;19.77;5.25;;;15.30;61.90;;;;;;7387663;19;20055;-89
2022/09/23 06:52:27;;;;;;;12.75;4.22;;;15.40;62.00;;;;;;7420297;19;20011;-89
2022/09/23 06:54:56;;;;;;;11.73;4.90;;;15.40;62.00;;;;;;7392640;19;20022;-89
2022/09/23 06:57:25;;;;;;;9.48;4.38;;;15.40;62.00;;;;;;7403131;19;20042;-87
2022/09/23 06:59:54;;;;;;;11.02;4.15;;;15.40;62.00;;;;;;7394854;19;20359;-87
2022/09/23 07:02:25;;;;;;;17.90;5.57;;;15.40;61.90;;;;;;7400494;19;20006;-88
2022/09/23 07:04:56;;;;;;;10.75;4.82;;;15.50;61.90;;;;;;7403066;19;20446;-86
2022/09/23 07:07:25;;;;;;;13.60;4.80;;;15.50;61.90;;;;;;7407959;19;20014;-88
2022/09/23 07:09:54;;;;;;;11.23;5.03;;;15.50;62.10;;;;;;7395365;19;20011;-85
2022/09/23 07:12:23;;;;;;;15.25;4.72;;;15.50;62.30;;;;;;7394986;19;20031;-86
2022/09/23 07:14:51;;;;;;;11.18;4.75;;;15.60;62.30;;;;;;7388014;19;20129;-87
2022/09/23 07:17:20;;;;;;;11.85;4.50;;;15.60;62.10;;;;;;7391564;19;20014;-85
2022/09/23 07:19:53;;;;;;;23.90;5.03;;;15.70;62.10;;;;;;7401540;19;20035;-83
2022/09/23 07:22:23;;;;;;;18.83;4.93;;;15.60;61.60;;;;;;7416498;19;20011;-86
2022/09/23 07:27:30;;;;;;;17.67;5.47;;;15.70;61.90;;;;;;7399467;19;20103;-87
2022/09/23 07:29:59;;;;;;;13.30;5.28;;;15.80;61.90;;;;;;7386228;19;20018;-86
2022/09/23 07:32:28;;;;;;;12.63;4.60;;;15.80;62.10;;;;;;7364084;19;20213;-85
2022/09/23 07:34:59;;;;;;;22.17;5.03;;;15.90;62.40;;;;;;7407252;19;20011;-86
2022/09/23 07:37:28;;;;;;;24.13;5.15;;;15.90;62.50;;;;;;7403337;19;20014;-87
2022/09/23 07:39:56;;;;;;;15.60;5.10;;;16.00;62.40;;;;;;7395928;19;20339;-89
2022/09/23 07:42:25;;;;;;;9.95;4.78;;;16.00;62.20;;;;;;7401619;19;20011;-88
2022/09/23 07:44:56;;;;;;;14.20;4.95;;;16.10;62.20;;;;;;7399710;19;20086;-89
2022/09/23 07:47:24;;;;;;;13.23;4.60;;;16.10;62.10;;;;;;7399819;19;20015;-88
2022/09/23 07:49:54;;;;;;;13.68;5.28;;;16.20;62.10;;;;;;7405529;19;20009;-86
2022/09/23 07:52:25;;;;;;;12.85;5.00;;;16.20;62.20;;;;;;7425254;19;20006;-89
2022/09/23 07:55:05;;;;;;;23.45;5.95;;;16.20;62.20;;;;;;7393540;19;20019;-88
2022/09/23 07:57:36;;;;;;;15.35;5.50;;;16.30;62.00;;;;;;7404781;19;20034;-88
2022/09/23 08:00:05;;;;;;;30.83;6.00;;;16.40;61.80;;;;;;7388573;19;20018;-89
2022/09/23 08:02:34;;;;;;;15.05;5.28;;;16.50;61.70;;;;;;7401580;19;20055;-89
2022/09/23 08:05:04;;;;;;;17.75;5.03;;;16.60;61.40;;;;;;7394510;19;20067;-88
2022/09/23 08:07:36;;;;;;;16.90;5.18;;;16.70;61.20;;;;;;7408943;19;20015;-88
2022/09/23 08:10:05;;;;;;;;;;;16.80;61.10;;;;;;7402177;19;20069;-88
2022/09/23 08:15:07;;;;;;;25.13;5.40;;;16.90;60.70;;;;;;7402644;19;20018;-88
2022/09/23 08:17:36;;;;;;;18.23;5.43;;;16.90;60.40;;;;;;7399728;19;20568;-87
2022/09/23 08:20:05;;;;;;;13.52;5.88;;;16.90;60.10;;;;;;7308992;19;21153;-80
2022/09/23 08:22:36;;;;;;;17.10;5.57;;;17.00;60.00;;;;;;7407637;19;20031;-89
2022/09/23 08:25:05;;;;;;;16.95;5.10;;;17.00;59.70;;;;;;7398839;19;20018;-87
2022/09/23 08:27:34;;;;;;;18.88;6.00;;;17.10;59.70;;;;;;7387337;19;20525;-86
2022/09/23 08:32:36;;;;;;;21.95;5.40;;;17.20;59.50;;;;;;7407174;19;20010;-89
2022/09/23 08:35:04;;;;;;;15.40;4.88;;;17.20;59.00;;;;;;7408997;19;20047;-85
2022/09/23 08:37:36;;;;;;;12.73;5.20;;;17.20;58.90;;;;;;7431764;19;20006;-86
2022/09/23 08:40:05;;;;;;;20.48;5.55;;;17.30;59.00;;;;;;7403337;19;20030;-87
2022/09/23 08:42:37;;;;;;;20.40;6.00;;;17.30;58.70;;;;;;7393788;19;20008;-86
2022/09/23 08:45:08;;;;;;;21.08;5.00;;;17.40;58.70;;;;;;7389441;19;20084;-89
2022/09/23 08:47:49;;;;;;;22.42;5.55;;;17.40;58.50;;;;;;7394535;19;20006;-88
2022/09/23 08:50:22;;;;;;;14.93;5.25;;;17.40;58.40;;;;;;7390310;19;20031;-87
2022/09/23 08:52:57;;;;;;;31.17;5.28;;;17.50;57.90;;;;;;7395326;19;20014;-87
2022/09/23 08:55:35;;;;;;;19.13;5.25;;;17.50;57.40;;;;;;7418346;19;20042;-88
2022/09/23 08:58:20;;;;;;;27.27;4.88;;;17.50;57.40;;;;;;7392295;19;20018;-86
2022/09/23 09:01:01;;;;;;;21.83;5.38;;;17.50;57.50;;;;;;7383046;19;20054;-87
2022/09/23 09:03:35;;;;;;;18.70;4.43;;;17.60;57.50;;;;;;7395456;19;20042;-88
2022/09/23 09:06:05;;;;;;;18.75;4.70;;;17.60;57.50;;;;;;7396322;19;20031;-88
2022/09/23 09:08:38;;;;;;;21.73;5.10;;;17.70;57.50;;;;;;7389623;19;20018;-87
2022/09/23 09:11:08;;;;;;;15.07;4.55;;;17.70;57.40;;;;;;7386568;19;20031;-90
2022/09/23 09:13:47;;;;;;;27.02;4.45;;;17.80;57.40;;;;;;7416910;19;20058;-88
2022/09/23 09:18:57;;;;;;;23.70;4.70;;;18.00;57.10;;;;;;7395413;19;20046;-86
2022/09/23 09:21:36;;;;;;;29.25;4.80;;;18.00;57.30;;;;;;7399107;19;20026;-87
2022/09/23 09:24:21;;;;;;;18.42;5.07;;;18.00;57.50;;;;;;7383759;19;20535;-88
2022/09/23 09:26:50;;;;;;;14.90;4.70;;;18.10;57.80;;;;;;7389373;19;20399;-86
2022/09/23 09:29:24;;;;;;;15.13;4.32;;;18.10;57.90;;;;;;7382734;19;20077;-87
2022/09/23 09:31:53;;;;;;;17.23;4.85;;;18.20;57.90;;;;;;7380626;19;20090;-85
2022/09/23 09:34:30;;;;;;;22.98;4.82;;;18.30;57.80;;;;;;7413009;19;20022;-86
2022/09/23 09:37:06;;;;;;;17.95;4.88;;;18.30;57.70;;;;;;7394987;19;20060;-86
2022/09/23 09:39:38;;;;;;;18.10;4.22;;;18.40;57.70;;;;;;7394628;19;20011;-86
2022/09/23 09:42:07;;;;;;;22.38;4.32;;;18.50;57.30;;;;;;7401671;19;20019;-84
2022/09/23 09:44:41;;;;;;;13.50;4.10;;;18.60;57.20;;;;;;7405548;19;20374;-86
2022/09/23 09:47:27;;;;;;;22.20;4.07;;;18.70;57.10;;;;;;7400272;19;20011;-87
2022/09/23 09:49:59;;;;;;;17.88;4.55;;;18.70;56.90;;;;;;7401088;19;20035;-85
2022/09/23 09:52:30;;;;;;;10.90;3.33;;;18.80;56.70;;;;;;7416111;19;20021;-85
2022/09/23 09:55:24;;;;;;;17.77;3.70;;;18.90;56.70;;;;;;7376578;19;20021;-84
2022/09/23 09:58:00;;;;;;;20.02;3.85;;;19.00;56.70;;;;;;7384373;19;20038;-87
2022/09/23 10:00:43;;;;;;;15.50;4.32;;;19.00;56.10;;;;;;7390244;19;20028;-88
2022/09/23 10:03:32;;;;;;;14.25;3.53;;;19.10;56.10;;;;;;7387316;19;20007;-81
2022/09/23 10:06:00;;;;;;;13.10;4.00;;;19.10;56.50;;;;;;7397483;19;20006;-79
2022/09/23 10:08:33;;;;;;;9.23;3.60;;;19.20;56.90;;;;;;7379904;19;20022;-84
2022/09/23 10:11:08;;;;;;;16.08;3.67;;;19.20;56.70;;;;;;7372646;19;20453;-85
2022/09/23 10:13:37;;;;;;;14.43;3.53;;;19.30;56.60;;;;;;7390627;19;20007;-83
2022/09/23 10:16:06;;;;;;;18.20;3.60;;;19.40;56.60;;;;;;7367673;19;20026;-81
2022/09/23 10:18:39;;;;;;;15.13;3.45;;;19.40;55.80;;;;;;7366571;19;20772;-79
2022/09/23 10:21:14;;;;;;;14.10;3.13;;;19.40;55.70;;;;;;7366165;19;20026;-83
2022/09/23 10:23:45;;;;;;;18.40;3.47;;;19.50;55.60;;;;;;7368067;19;20019;-84
2022/09/23 10:26:18;;;;;;;20.98;3.90;;;19.50;55.40;;;;;;7376081;19;20090;-84
2022/09/23 10:28:50;;;;;;;21.13;3.20;;;19.50;55.40;;;;;;7398052;19;20022;-81
2022/09/23 10:31:25;;;;;;;16.80;3.70;;;19.50;55.30;;;;;;7421371;19;20055;-88
2022/09/23 16:48:59;;;;;;;6.40;2.30;;;21.00;53.90;;;;;;7321037;19;20018;-77
2022/09/23 16:54:58;;;;;;;7.38;2.20;;;20.70;55.20;;;;;;7135607;19;5412767;-78
2022/09/23 16:57:36;;;;;;;8.68;2.38;;;20.60;55.30;;;;;;7416038;19;20022;-77
2022/09/23 17:06:03;;;;;;;5.38;2.40;;;20.50;55.40;;;;;;7413465;19;20086;-78
2022/09/23 17:18:45;;;;;;;8.52;2.30;;;20.20;55.40;;;;;;7436545;19;19994;-78
2022/09/23 17:21:19;;;;;;;4.75;2.10;;;20.20;55.30;;;;;;7399701;19;20452;-77
2022/09/23 18:03:12;;;;;;;9.97;2.77;;;19.30;56.00;;;;;;7423581;19;20065;-78
2022/09/23 18:05:41;;;;;;;7.55;2.92;;;19.30;56.00;;;;;;7397955;19;20039;-78
2022/09/23 18:08:10;;;;;;;6.00;3.08;;;19.40;56.10;;;;;;7397277;19;20044;-79
2022/09/23 18:10:39;;;;;;;5.07;2.88;;;19.40;56.10;;;;;;7393270;19;20022;-79
2022/09/23 18:13:07;;;;;;;17.98;3.40;;;19.40;55.90;;;;;;7394397;19;20114;-79
2022/09/23 18:15:37;;;;;;;8.98;2.78;;;19.30;55.80;;;;;;7394089;19;20018;-80
2022/09/23 18:18:06;;;;;;;5.72;3.03;;;19.30;55.90;;;;;;7386617;19;20019;-79
2022/09/23 18:20:37;;;;;;;6.97;3.22;;;19.30;55.90;;;;;;7395988;19;20394;-79
2022/09/23 18:23:06;;;;;;;8.30;2.90;;;19.30;55.70;;;;;;7396593;19;20019;-79
2022/09/23 18:25:35;;;;;;;10.68;2.97;;;19.40;55.90;;;;;;7395860;19;20085;-79
2022/09/23 18:28:04;;;;;;;5.35;2.92;;;19.30;55.90;;;;;;7394427;19;20579;-78
2022/09/23 18:30:33;;;;;;;4.20;3.05;;;19.40;55.70;;;;;;7395566;19;20022;-79
2022/09/23 18:33:02;;;;;;;8.15;3.35;;;19.30;55.70;;;;;;7394191;19;20014;-79
2022/09/23 18:35:32;;;;;;;9.95;3.50;;;19.30;55.90;;;;;;7395257;19;20034;-79
2022/09/23 18:38:03;;;;;;;13.73;3.60;;;19.30;55.90;;;;;;7399863;19;20026;-79
2022/09/23 18:40:33;;;;;;;11.65;3.25;;;19.30;56.10;;;;;;7397135;19;20031;-78
2022/09/23 18:43:02;;;;;;;6.63;3.50;;;19.30;56.10;;;;;;7397972;19;20014;-79
2022/09/23 18:45:33;;;;;;;14.80;3.38;;;19.30;56.40;;;;;;7399706;19;20014;-80
2022/09/23 18:50:56;;;;;;;7.57;3.35;;;19.30;56.70;;;;;;7390928;19;20048;-79
2022/09/23 18:53:28;;;;;;;10.77;3.38;;;19.30;56.60;;;;;;7395751;19;20048;-79
2022/09/23 18:55:56;;;;;;;10.35;3.70;;;19.30;56.70;;;;;;7403987;19;20015;-78
2022/09/23 18:58:25;;;;;;;10.30;3.90;;;19.30;56.70;;;;;;7400364;19;20031;-78
2022/09/23 19:00:54;;;;;;;11.27;3.42;;;19.20;56.50;;;;;;7398806;19;20026;-81
2022/09/23 19:03:23;;;;;;;8.32;3.60;;;19.20;56.50;;;;;;7400160;19;20035;-79
2022/09/23 19:05:52;;;;;;;7.68;3.33;;;19.20;56.50;;;;;;7396822;19;20018;-79
2022/09/23 19:08:21;;;;;;;9.73;3.25;;;19.20;56.40;;;;;;7400379;19;20010;-79
2022/09/23 19:10:59;;;;;;;9.40;3.33;;;19.20;56.50;;;;;;7394866;19;20345;-79
2022/09/23 19:13:29;;;;;;;8.00;3.58;;;19.20;56.40;;;;;;7390786;19;20424;-79
2022/09/23 19:16:02;;;;;;;10.88;3.80;;;19.20;56.40;;;;;;7392697;19;20033;-79
2022/09/23 19:18:31;;;;;;;6.30;3.05;;;19.20;56.20;;;;;;7394929;19;20018;-79
2022/09/23 19:21:01;;;;;;;8.50;3.38;;;19.20;56.40;;;;;;7397014;19;20014;-79
2022/09/23 19:23:30;;;;;;;7.18;3.95;;;19.10;56.50;;;;;;7395666;19;20063;-79
2022/09/23 19:26:03;;;;;;;8.25;3.40;;;19.10;56.80;;;;;;7394780;19;20014;-79
2022/09/23 19:28:32;;;;;;;8.40;4.00;;;19.10;57.00;;;;;;7392411;19;20374;-79
2022/09/23 19:31:11;;;;;;;9.55;4.18;;;19.10;57.00;;;;;;7396941;19;20023;-79
2022/09/23 19:33:40;;;;;;;11.65;4.00;;;19.10;57.10;;;;;;7393951;19;20609;-79
2022/09/23 19:36:10;;;;;;;15.65;4.15;;;19.10;57.10;;;;;;7393617;19;20594;-79
2022/09/23 19:38:39;;;;;;;16.73;4.93;;;19.10;57.10;;;;;;7390065;19;20017;-79
2022/09/23 19:41:10;;;;;;;8.40;4.50;;;19.10;57.40;;;;;;7395644;19;20045;-79
2022/09/23 19:43:39;;;;;;;17.88;5.45;;;19.10;57.50;;;;;;7395677;19;20029;-79
2022/09/23 19:46:08;;;;;;;8.88;4.32;;;19.10;57.60;;;;;;7399879;19;20457;-79
2022/09/23 19:48:37;;;;;;;11.75;4.75;;;19.00;57.50;;;;;;7397481;19;20727;-79
2022/09/23 19:51:06;;;;;;;7.18;4.32;;;19.10;57.60;;;;;;7395027;19;20571;-79
2022/09/23 19:53:35;;;;;;;9.00;4.80;;;19.10;57.50;;;;;;7388889;19;20031;-79
2022/09/23 19:56:04;;;;;;;15.20;5.10;;;19.10;57.50;;;;;;7389648;19;20528;-79
2022/09/23 19:58:35;;;;;;;11.68;4.32;;;19.00;57.50;;;;;;7390615;19;20444;-79
2022/09/23 20:01:08;;;;;;;10.23;4.53;;;19.00;57.50;;;;;;7395247;19;20018;-79
2022/09/23 20:03:37;;;;;;;8.30;4.05;;;19.00;57.60;;;;;;7392636;19;20018;-79
2022/09/23 20:06:06;;;;;;;10.50;4.53;;;19.00;57.50;;;;;;7390360;19;20026;-79
2022/09/23 20:08:37;;;;;;;8.10;3.85;;;19.00;57.50;;;;;;7394735;19;20011;-79
2022/09/23 20:11:11;;;;;;;11.05;4.30;;;19.00;57.50;;;;;;7394077;19;20026;-79
2022/09/23 20:13:45;;;;;;;12.25;4.38;;;19.00;57.40;;;;;;7392201;19;20466;-79
2022/09/23 20:16:17;;;;;;;12.15;4.20;;;19.00;57.20;;;;;;7393495;19;20025;-79
2022/09/23 20:18:45;;;;;;;10.50;3.95;;;19.00;57.20;;;;;;7392417;19;20018;-79
2022/09/23 20:21:16;;;;;;;8.98;4.55;;;19.00;57.30;;;;;;7392770;19;20035;-79
2022/09/23 20:23:46;;;;;;;8.93;4.90;;;19.00;57.60;;;;;;7394044;19;20445;-79
2022/09/23 20:29:00;;;;;;;12.73;5.20;;;19.00;58.20;;;;;;7394682;19;20030;-79
2022/09/23 20:31:30;;;;;;;8.38;4.47;;;19.00;58.30;;;;;;7395960;19;20022;-78
2022/09/23 20:34:04;;;;;;;13.43;6.45;;;19.00;58.40;;;;;;7396218;19;20082;-78
2022/09/23 20:36:34;;;;;;;13.82;6.50;;;19.00;58.80;;;;;;7398845;19;20022;-78